sensor_id;sensor_type;location;lat;lon;timestamp;P1;durP1;ratioP1;P2;durP2;ratioP2
2680;SDS011;1350;42.134;24.708;2022-07-01T00:01:59;9.90;;;7.23;;
2680;SDS011;1350;42.134;24.708;2022-07-01T00:04:26;10.90;;;8.07;;
2680;SDS011;1350;42.134;24.708;2022-07-01T00:06:54;9.40;;;7.57;;
2680;SDS011;1350;42.134;24.708;2022-07-01T00:09:21;10.10;;;7.40;;
2680;SDS011;1350;42.134;24.708;2022-07-01T00:11:48;16.33;;;7.80;;
2680;SDS011;1350;42.134;24.708;2022-07-01T00:14:15;10.33;;;8.00;;
2680;SDS011;1350;42.134;24.708;2022-07-01T00:16:42;9.70;;;7.37;;
2680;SDS011;1350;42.134;24.708;2022-07-01T00:19:09;14.50;;;7.40;;
2680;SDS011;1350;42.134;24.708;2022-07-01T00:21:36;12.73;;;7.40;;
2680;SDS011;1350;42.134;24.708;2022-07-01T00:24:04;9.17;;;7.73;;
2680;SDS011;1350;42.134;24.708;2022-07-01T00:26:31;10.33;;;7.27;;
2680;SDS011;1350;42.134;24.708;2022-07-01T00:28:58;11.70;;;7.23;;
2680;SDS011;1350;42.134;24.708;2022-07-01T00:31:25;12.67;;;8.50;;
2680;SDS011;1350;42.134;24.708;2022-07-01T00:33:52;10.77;;;8.40;;
2680;SDS011;1350;42.134;24.708;2022-07-01T00:36:18;10.63;;;7.13;;
2680;SDS011;1350;42.134;24.708;2022-07-01T00:38:46;9.37;;;6.60;;
2680;SDS011;1350;42.134;24.708;2022-07-01T00:41:14;12.40;;;7.30;;
2680;SDS011;1350;42.134;24.708;2022-07-01T00:43:41;8.03;;;6.60;;
2680;SDS011;1350;42.134;24.708;2022-07-01T00:46:08;9.53;;;6.20;;
2680;SDS011;1350;42.134;24.708;2022-07-01T00:48:35;10.10;;;7.23;;
2680;SDS011;1350;42.134;24.708;2022-07-01T00:51:02;9.47;;;7.37;;
2680;SDS011;1350;42.134;24.708;2022-07-01T00:53:29;11.20;;;6.50;;
2680;SDS011;1350;42.134;24.708;2022-07-01T00:55:56;13.80;;;6.97;;
2680;SDS011;1350;42.134;24.708;2022-07-01T00:58:26;10.13;;;8.20;;
2680;SDS011;1350;42.134;24.708;2022-07-01T01:00:54;9.53;;;6.83;;
2680;SDS011;1350;42.134;24.708;2022-07-01T01:03:21;14.60;;;7.83;;
2680;SDS011;1350;42.134;24.708;2022-07-01T01:05:48;14.33;;;7.37;;
2680;SDS011;1350;42.134;24.708;2022-07-01T01:08:15;10.20;;;7.47;;
2680;SDS011;1350;42.134;24.708;2022-07-01T01:10:42;10.57;;;6.90;;
2680;SDS011;1350;42.134;24.708;2022-07-01T01:13:09;18.33;;;9.23;;
2680;SDS011;1350;42.134;24.708;2022-07-01T01:15:39;17.73;;;8.93;;
2680;SDS011;1350;42.134;24.708;2022-07-01T01:18:06;15.13;;;9.03;;
2680;SDS011;1350;42.134;24.708;2022-07-01T01:20:34;19.17;;;9.07;;
2680;SDS011;1350;42.134;24.708;2022-07-01T01:23:01;12.90;;;9.13;;
2680;SDS011;1350;42.134;24.708;2022-07-01T01:25:29;13.03;;;8.93;;
2680;SDS011;1350;42.134;24.708;2022-07-01T01:27:56;14.97;;;8.57;;
2680;SDS011;1350;42.134;24.708;2022-07-01T01:30:23;10.00;;;8.40;;
2680;SDS011;1350;42.134;24.708;2022-07-01T01:32:50;12.90;;;9.00;;
2680;SDS011;1350;42.134;24.708;2022-07-01T01:35:18;11.20;;;8.80;;
2680;SDS011;1350;42.134;24.708;2022-07-01T01:37:46;19.33;;;9.80;;
2680;SDS011;1350;42.134;24.708;2022-07-01T01:40:13;11.73;;;7.80;;
2680;SDS011;1350;42.134;24.708;2022-07-01T01:42:41;15.53;;;10.50;;
2680;SDS011;1350;42.134;24.708;2022-07-01T01:45:08;12.40;;;9.23;;
2680;SDS011;1350;42.134;24.708;2022-07-01T01:47:35;13.33;;;9.93;;
2680;SDS011;1350;42.134;24.708;2022-07-01T01:50:03;12.57;;;9.97;;
2680;SDS011;1350;42.134;24.708;2022-07-01T01:52:30;14.13;;;9.40;;
2680;SDS011;1350;42.134;24.708;2022-07-01T01:54:59;11.23;;;9.27;;
2680;SDS011;1350;42.134;24.708;2022-07-01T01:57:26;15.40;;;10.83;;
2680;SDS011;1350;42.134;24.708;2022-07-01T01:59:52;25.17;;;11.13;;
2680;SDS011;1350;42.134;24.708;2022-07-01T02:02:19;15.90;;;9.70;;
2680;SDS011;1350;42.134;24.708;2022-07-01T02:04:46;12.57;;;10.33;;
2680;SDS011;1350;42.134;24.708;2022-07-01T02:07:13;17.40;;;9.50;;
2680;SDS011;1350;42.134;24.708;2022-07-01T02:09:40;14.93;;;10.10;;
2680;SDS011;1350;42.134;24.708;2022-07-01T02:12:08;13.20;;;10.13;;
2680;SDS011;1350;42.134;24.708;2022-07-01T02:14:35;13.43;;;9.30;;
2680;SDS011;1350;42.134;24.708;2022-07-01T02:17:02;14.40;;;9.20;;
2680;SDS011;1350;42.134;24.708;2022-07-01T02:19:30;17.77;;;9.57;;
2680;SDS011;1350;42.134;24.708;2022-07-01T02:21:56;13.53;;;8.70;;
2680;SDS011;1350;42.134;24.708;2022-07-01T02:24:23;14.17;;;10.07;;
2680;SDS011;1350;42.134;24.708;2022-07-01T02:26:52;11.23;;;8.83;;
2680;SDS011;1350;42.134;24.708;2022-07-01T02:29:20;16.43;;;9.80;;
2680;SDS011;1350;42.134;24.708;2022-07-01T02:31:47;14.37;;;10.23;;
2680;SDS011;1350;42.134;24.708;2022-07-01T02:34:14;12.97;;;9.20;;
2680;SDS011;1350;42.134;24.708;2022-07-01T02:36:40;12.40;;;9.10;;
2680;SDS011;1350;42.134;24.708;2022-07-01T02:39:07;14.13;;;10.20;;
2680;SDS011;1350;42.134;24.708;2022-07-01T02:41:34;20.70;;;9.47;;
2680;SDS011;1350;42.134;24.708;2022-07-01T02:44:23;14.03;;;9.70;;
2680;SDS011;1350;42.134;24.708;2022-07-01T02:46:49;12.37;;;8.00;;
2680;SDS011;1350;42.134;24.708;2022-07-01T02:49:16;10.97;;;9.60;;
2680;SDS011;1350;42.134;24.708;2022-07-01T02:51:43;13.53;;;10.03;;
2680;SDS011;1350;42.134;24.708;2022-07-01T02:54:10;11.83;;;9.57;;
2680;SDS011;1350;42.134;24.708;2022-07-01T02:56:36;10.27;;;8.57;;
2680;SDS011;1350;42.134;24.708;2022-07-01T02:59:03;14.53;;;10.00;;
2680;SDS011;1350;42.134;24.708;2022-07-01T03:01:31;16.90;;;10.13;;
2680;SDS011;1350;42.134;24.708;2022-07-01T03:03:58;14.07;;;9.10;;
2680;SDS011;1350;42.134;24.708;2022-07-01T03:06:25;16.53;;;9.00;;
2680;SDS011;1350;42.134;24.708;2022-07-01T03:08:52;13.30;;;8.87;;
2680;SDS011;1350;42.134;24.708;2022-07-01T03:11:21;20.80;;;10.37;;
2680;SDS011;1350;42.134;24.708;2022-07-01T03:13:47;14.90;;;9.00;;
2680;SDS011;1350;42.134;24.708;2022-07-01T03:16:14;15.90;;;10.03;;
2680;SDS011;1350;42.134;24.708;2022-07-01T03:18:42;12.43;;;9.00;;
2680;SDS011;1350;42.134;24.708;2022-07-01T03:21:09;18.40;;;9.97;;
2680;SDS011;1350;42.134;24.708;2022-07-01T03:23:36;11.63;;;9.10;;
2680;SDS011;1350;42.134;24.708;2022-07-01T03:26:02;13.80;;;10.30;;
2680;SDS011;1350;42.134;24.708;2022-07-01T03:28:29;11.50;;;7.97;;
2680;SDS011;1350;42.134;24.708;2022-07-01T03:30:56;18.60;;;8.80;;
2680;SDS011;1350;42.134;24.708;2022-07-01T03:33:23;15.90;;;9.83;;
2680;SDS011;1350;42.134;24.708;2022-07-01T03:35:51;11.80;;;9.00;;
2680;SDS011;1350;42.134;24.708;2022-07-01T03:38:18;15.17;;;8.30;;
2680;SDS011;1350;42.134;24.708;2022-07-01T03:40:45;14.63;;;10.40;;
2680;SDS011;1350;42.134;24.708;2022-07-01T03:43:12;18.40;;;9.07;;
2680;SDS011;1350;42.134;24.708;2022-07-01T03:45:38;12.00;;;7.87;;
2680;SDS011;1350;42.134;24.708;2022-07-01T03:48:05;15.53;;;8.70;;
2680;SDS011;1350;42.134;24.708;2022-07-01T03:50:32;13.60;;;8.17;;
2680;SDS011;1350;42.134;24.708;2022-07-01T03:53:00;14.63;;;9.03;;
2680;SDS011;1350;42.134;24.708;2022-07-01T03:55:44;15.03;;;8.37;;
2680;SDS011;1350;42.134;24.708;2022-07-01T03:58:11;15.07;;;9.27;;
2680;SDS011;1350;42.134;24.708;2022-07-01T04:00:38;17.10;;;8.77;;
2680;SDS011;1350;42.134;24.708;2022-07-01T04:03:05;20.13;;;10.80;;
2680;SDS011;1350;42.134;24.708;2022-07-01T04:05:33;14.23;;;8.50;;
2680;SDS011;1350;42.134;24.708;2022-07-01T04:08:01;18.60;;;8.10;;
2680;SDS011;1350;42.134;24.708;2022-07-01T04:10:29;12.43;;;7.20;;
2680;SDS011;1350;42.134;24.708;2022-07-01T04:12:57;10.30;;;8.03;;
2680;SDS011;1350;42.134;24.708;2022-07-01T04:15:24;21.10;;;11.87;;
2680;SDS011;1350;42.134;24.708;2022-07-01T04:17:51;12.03;;;8.53;;
2680;SDS011;1350;42.134;24.708;2022-07-01T04:20:18;37.40;;;13.50;;
2680;SDS011;1350;42.134;24.708;2022-07-01T04:22:45;11.90;;;7.70;;
2680;SDS011;1350;42.134;24.708;2022-07-01T04:25:13;14.70;;;8.37;;
2680;SDS011;1350;42.134;24.708;2022-07-01T04:27:39;15.83;;;8.10;;
2680;SDS011;1350;42.134;24.708;2022-07-01T04:30:06;17.50;;;9.00;;
2680;SDS011;1350;42.134;24.708;2022-07-01T04:32:34;34.37;;;11.00;;
2680;SDS011;1350;42.134;24.708;2022-07-01T04:35:01;20.90;;;9.37;;
2680;SDS011;1350;42.134;24.708;2022-07-01T04:37:28;36.70;;;10.10;;
2680;SDS011;1350;42.134;24.708;2022-07-01T04:39:55;56.43;;;12.30;;
2680;SDS011;1350;42.134;24.708;2022-07-01T04:42:23;33.83;;;11.33;;
2680;SDS011;1350;42.134;24.708;2022-07-01T04:44:50;27.57;;;10.13;;
2680;SDS011;1350;42.134;24.708;2022-07-01T04:47:17;21.30;;;9.50;;
2680;SDS011;1350;42.134;24.708;2022-07-01T04:49:43;24.73;;;8.50;;
2680;SDS011;1350;42.134;24.708;2022-07-01T04:52:10;35.53;;;11.07;;
2680;SDS011;1350;42.134;24.708;2022-07-01T04:54:37;22.67;;;7.87;;
2680;SDS011;1350;42.134;24.708;2022-07-01T04:57:04;19.67;;;7.90;;
2680;SDS011;1350;42.134;24.708;2022-07-01T04:59:32;15.50;;;9.50;;
2680;SDS011;1350;42.134;24.708;2022-07-01T05:01:59;20.90;;;8.50;;
2680;SDS011;1350;42.134;24.708;2022-07-01T05:04:26;21.93;;;9.87;;
2680;SDS011;1350;42.134;24.708;2022-07-01T05:06:53;21.53;;;8.00;;
2680;SDS011;1350;42.134;24.708;2022-07-01T05:09:20;31.67;;;9.87;;
2680;SDS011;1350;42.134;24.708;2022-07-01T05:11:47;26.03;;;8.30;;
2680;SDS011;1350;42.134;24.708;2022-07-01T05:14:13;70.70;;;12.70;;
2680;SDS011;1350;42.134;24.708;2022-07-01T05:16:42;18.40;;;7.90;;
2680;SDS011;1350;42.134;24.708;2022-07-01T05:19:09;14.40;;;7.37;;
2680;SDS011;1350;42.134;24.708;2022-07-01T05:22:02;30.70;;;8.70;;
2680;SDS011;1350;42.134;24.708;2022-07-01T05:24:30;15.90;;;6.80;;
2680;SDS011;1350;42.134;24.708;2022-07-01T05:26:58;31.47;;;9.43;;
2680;SDS011;1350;42.134;24.708;2022-07-01T05:29:26;15.93;;;8.60;;
2680;SDS011;1350;42.134;24.708;2022-07-01T05:31:54;16.87;;;7.20;;
2680;SDS011;1350;42.134;24.708;2022-07-01T05:34:21;15.60;;;7.20;;
2680;SDS011;1350;42.134;24.708;2022-07-01T05:36:48;29.77;;;9.37;;
2680;SDS011;1350;42.134;24.708;2022-07-01T05:39:15;19.77;;;7.90;;
2680;SDS011;1350;42.134;24.708;2022-07-01T05:41:42;18.90;;;8.40;;
2680;SDS011;1350;42.134;24.708;2022-07-01T05:44:09;39.50;;;11.03;;
2680;SDS011;1350;42.134;24.708;2022-07-01T05:46:35;24.90;;;8.27;;
2680;SDS011;1350;42.134;24.708;2022-07-01T05:49:04;21.03;;;7.97;;
2680;SDS011;1350;42.134;24.708;2022-07-01T05:51:32;26.10;;;9.30;;
2680;SDS011;1350;42.134;24.708;2022-07-01T05:53:58;42.77;;;11.80;;
2680;SDS011;1350;42.134;24.708;2022-07-01T05:56:25;95.93;;;14.60;;
2680;SDS011;1350;42.134;24.708;2022-07-01T05:58:52;22.00;;;9.67;;
2680;SDS011;1350;42.134;24.708;2022-07-01T06:01:19;14.27;;;7.40;;
2680;SDS011;1350;42.134;24.708;2022-07-01T06:03:46;28.20;;;10.70;;
2680;SDS011;1350;42.134;24.708;2022-07-01T06:06:14;20.80;;;8.60;;
2680;SDS011;1350;42.134;24.708;2022-07-01T06:08:43;20.70;;;8.60;;
2680;SDS011;1350;42.134;24.708;2022-07-01T06:11:10;16.97;;;7.03;;
2680;SDS011;1350;42.134;24.708;2022-07-01T06:13:37;35.50;;;9.33;;
2680;SDS011;1350;42.134;24.708;2022-07-01T06:16:04;22.30;;;7.50;;
2680;SDS011;1350;42.134;24.708;2022-07-01T06:18:31;37.60;;;7.83;;
2680;SDS011;1350;42.134;24.708;2022-07-01T06:20:58;17.93;;;7.20;;
2680;SDS011;1350;42.134;24.708;2022-07-01T06:23:26;10.83;;;5.70;;
2680;SDS011;1350;42.134;24.708;2022-07-01T06:25:54;11.13;;;6.60;;
2680;SDS011;1350;42.134;24.708;2022-07-01T06:28:20;18.03;;;7.27;;
2680;SDS011;1350;42.134;24.708;2022-07-01T06:30:47;13.83;;;6.50;;
2680;SDS011;1350;42.134;24.708;2022-07-01T06:33:14;16.27;;;6.60;;
2680;SDS011;1350;42.134;24.708;2022-07-01T06:35:41;11.20;;;6.07;;
2680;SDS011;1350;42.134;24.708;2022-07-01T06:38:07;40.37;;;9.03;;
2680;SDS011;1350;42.134;24.708;2022-07-01T06:40:36;22.23;;;6.13;;
2680;SDS011;1350;42.134;24.708;2022-07-01T06:43:03;19.43;;;8.83;;
2680;SDS011;1350;42.134;24.708;2022-07-01T06:45:30;15.13;;;6.60;;
2680;SDS011;1350;42.134;24.708;2022-07-01T06:47:56;17.00;;;7.30;;
2680;SDS011;1350;42.134;24.708;2022-07-01T06:50:23;13.33;;;6.67;;
2680;SDS011;1350;42.134;24.708;2022-07-01T06:52:50;18.80;;;6.57;;
2680;SDS011;1350;42.134;24.708;2022-07-01T06:55:17;20.40;;;6.97;;
2680;SDS011;1350;42.134;24.708;2022-07-01T06:57:45;10.07;;;5.60;;
2680;SDS011;1350;42.134;24.708;2022-07-01T07:00:12;17.50;;;6.30;;
2680;SDS011;1350;42.134;24.708;2022-07-01T07:02:39;11.33;;;6.70;;
2680;SDS011;1350;42.134;24.708;2022-07-01T07:05:07;16.53;;;6.20;;
2680;SDS011;1350;42.134;24.708;2022-07-01T07:07:34;15.30;;;8.00;;
2680;SDS011;1350;42.134;24.708;2022-07-01T07:10:01;18.30;;;7.50;;
2680;SDS011;1350;42.134;24.708;2022-07-01T07:12:28;13.27;;;5.93;;
2680;SDS011;1350;42.134;24.708;2022-07-01T07:14:56;20.30;;;7.50;;
2680;SDS011;1350;42.134;24.708;2022-07-01T07:17:23;13.60;;;7.40;;
2680;SDS011;1350;42.134;24.708;2022-07-01T07:19:50;16.57;;;5.90;;
2680;SDS011;1350;42.134;24.708;2022-07-01T07:22:17;12.27;;;4.77;;
2680;SDS011;1350;42.134;24.708;2022-07-01T07:24:43;13.57;;;5.60;;
2680;SDS011;1350;42.134;24.708;2022-07-01T07:27:10;17.63;;;5.87;;
2680;SDS011;1350;42.134;24.708;2022-07-01T07:29:37;19.80;;;5.80;;
2680;SDS011;1350;42.134;24.708;2022-07-01T07:32:06;16.00;;;6.97;;
2680;SDS011;1350;42.134;24.708;2022-07-01T07:34:33;12.07;;;5.80;;
2680;SDS011;1350;42.134;24.708;2022-07-01T07:37:00;14.33;;;6.80;;
2680;SDS011;1350;42.134;24.708;2022-07-01T07:39:26;18.20;;;5.90;;
2680;SDS011;1350;42.134;24.708;2022-07-01T07:41:53;16.73;;;6.87;;
2680;SDS011;1350;42.134;24.708;2022-07-01T07:44:20;17.10;;;6.47;;
2680;SDS011;1350;42.134;24.708;2022-07-01T07:46:47;12.30;;;5.67;;
2680;SDS011;1350;42.134;24.708;2022-07-01T07:49:15;12.87;;;5.03;;
2680;SDS011;1350;42.134;24.708;2022-07-01T07:51:42;8.10;;;5.10;;
2680;SDS011;1350;42.134;24.708;2022-07-01T07:54:08;10.53;;;4.57;;
2680;SDS011;1350;42.134;24.708;2022-07-01T07:56:35;8.67;;;4.93;;
2680;SDS011;1350;42.134;24.708;2022-07-01T07:59:02;12.90;;;5.83;;
2680;SDS011;1350;42.134;24.708;2022-07-01T08:01:29;9.50;;;4.57;;
2680;SDS011;1350;42.134;24.708;2022-07-01T08:03:56;11.90;;;5.07;;
2680;SDS011;1350;42.134;24.708;2022-07-01T08:06:24;9.73;;;4.60;;
2680;SDS011;1350;42.134;24.708;2022-07-01T08:08:51;21.43;;;6.80;;
2680;SDS011;1350;42.134;24.708;2022-07-01T08:11:18;15.23;;;4.90;;
2680;SDS011;1350;42.134;24.708;2022-07-01T08:13:44;41.80;;;8.57;;
2680;SDS011;1350;42.134;24.708;2022-07-01T08:16:11;28.00;;;7.50;;
2680;SDS011;1350;42.134;24.708;2022-07-01T08:18:38;10.80;;;5.40;;
2680;SDS011;1350;42.134;24.708;2022-07-01T08:21:05;40.90;;;10.80;;
2680;SDS011;1350;42.134;24.708;2022-07-01T08:23:33;10.77;;;6.57;;
2680;SDS011;1350;42.134;24.708;2022-07-01T08:26:00;10.70;;;5.60;;
2680;SDS011;1350;42.134;24.708;2022-07-01T08:28:27;11.67;;;5.40;;
2680;SDS011;1350;42.134;24.708;2022-07-01T08:30:55;16.27;;;4.90;;
2680;SDS011;1350;42.134;24.708;2022-07-01T08:33:21;10.20;;;5.47;;
2680;SDS011;1350;42.134;24.708;2022-07-01T08:35:48;11.47;;;5.13;;
2680;SDS011;1350;42.134;24.708;2022-07-01T08:38:15;8.13;;;4.20;;
2680;SDS011;1350;42.134;24.708;2022-07-01T08:40:43;15.73;;;5.63;;
2680;SDS011;1350;42.134;24.708;2022-07-01T08:43:10;14.83;;;4.87;;
2680;SDS011;1350;42.134;24.708;2022-07-01T08:45:37;14.67;;;5.93;;
2680;SDS011;1350;42.134;24.708;2022-07-01T08:48:04;28.87;;;7.23;;
2680;SDS011;1350;42.134;24.708;2022-07-01T08:50:34;27.90;;;6.90;;
2680;SDS011;1350;42.134;24.708;2022-07-01T08:53:02;37.90;;;7.43;;
2680;SDS011;1350;42.134;24.708;2022-07-01T08:55:29;7.90;;;4.13;;
2680;SDS011;1350;42.134;24.708;2022-07-01T08:57:57;10.27;;;5.37;;
2680;SDS011;1350;42.134;24.708;2022-07-01T09:00:30;23.90;;;6.13;;
2680;SDS011;1350;42.134;24.708;2022-07-01T09:02:59;10.50;;;4.63;;
2680;SDS011;1350;42.134;24.708;2022-07-01T09:05:28;16.83;;;5.43;;
2680;SDS011;1350;42.134;24.708;2022-07-01T09:07:57;8.90;;;5.07;;
2680;SDS011;1350;42.134;24.708;2022-07-01T09:10:25;6.30;;;4.73;;
2680;SDS011;1350;42.134;24.708;2022-07-01T09:12:52;8.23;;;4.90;;
2680;SDS011;1350;42.134;24.708;2022-07-01T09:15:25;14.63;;;4.50;;
2680;SDS011;1350;42.134;24.708;2022-07-01T09:17:53;12.77;;;5.20;;
2680;SDS011;1350;42.134;24.708;2022-07-01T09:20:28;44.30;;;8.80;;
2680;SDS011;1350;42.134;24.708;2022-07-01T09:22:57;10.60;;;4.40;;
2680;SDS011;1350;42.134;24.708;2022-07-01T09:25:26;17.63;;;5.83;;
2680;SDS011;1350;42.134;24.708;2022-07-01T09:28:02;16.40;;;5.50;;
2680;SDS011;1350;42.134;24.708;2022-07-01T09:30:31;11.10;;;5.10;;
2680;SDS011;1350;42.134;24.708;2022-07-01T09:33:08;9.93;;;4.80;;
2680;SDS011;1350;42.134;24.708;2022-07-01T09:35:37;9.60;;;5.47;;
2680;SDS011;1350;42.134;24.708;2022-07-01T09:38:04;6.93;;;4.77;;
2680;SDS011;1350;42.134;24.708;2022-07-01T09:40:51;6.33;;;4.47;;
2680;SDS011;1350;42.134;24.708;2022-07-01T09:43:20;12.13;;;5.57;;
2680;SDS011;1350;42.134;24.708;2022-07-01T09:45:51;15.37;;;6.10;;
2680;SDS011;1350;42.134;24.708;2022-07-01T09:48:19;15.10;;;7.40;;
2680;SDS011;1350;42.134;24.708;2022-07-01T09:50:46;10.00;;;5.30;;
2680;SDS011;1350;42.134;24.708;2022-07-01T09:53:13;13.03;;;4.80;;
2680;SDS011;1350;42.134;24.708;2022-07-01T09:55:40;8.50;;;6.40;;
2680;SDS011;1350;42.134;24.708;2022-07-01T09:58:07;9.10;;;4.50;;
2680;SDS011;1350;42.134;24.708;2022-07-01T10:00:34;12.70;;;5.30;;
2680;SDS011;1350;42.134;24.708;2022-07-01T10:03:04;12.23;;;4.47;;
2680;SDS011;1350;42.134;24.708;2022-07-01T10:05:34;22.83;;;6.00;;
2680;SDS011;1350;42.134;24.708;2022-07-01T10:08:07;15.17;;;5.90;;
2680;SDS011;1350;42.134;24.708;2022-07-01T10:10:48;8.80;;;5.53;;
2680;SDS011;1350;42.134;24.708;2022-07-01T10:13:24;7.67;;;4.60;;
2680;SDS011;1350;42.134;24.708;2022-07-01T10:15:53;10.07;;;5.00;;
2680;SDS011;1350;42.134;24.708;2022-07-01T10:18:24;31.20;;;7.90;;
2680;SDS011;1350;42.134;24.708;2022-07-01T10:20:52;14.43;;;5.43;;
2680;SDS011;1350;42.134;24.708;2022-07-01T10:23:21;13.27;;;5.33;;
2680;SDS011;1350;42.134;24.708;2022-07-01T10:25:49;12.03;;;5.03;;
2680;SDS011;1350;42.134;24.708;2022-07-01T10:28:18;12.17;;;4.40;;
2680;SDS011;1350;42.134;24.708;2022-07-01T10:30:48;7.40;;;5.30;;
2680;SDS011;1350;42.134;24.708;2022-07-01T10:33:27;17.83;;;5.80;;
2680;SDS011;1350;42.134;24.708;2022-07-01T10:36:05;21.27;;;6.43;;
2680;SDS011;1350;42.134;24.708;2022-07-01T10:42:00;33.90;;;9.80;;
2680;SDS011;1350;42.134;24.708;2022-07-01T10:44:29;30.17;;;7.93;;
2680;SDS011;1350;42.134;24.708;2022-07-01T10:47:05;8.70;;;5.10;;
2680;SDS011;1350;42.134;24.708;2022-07-01T10:49:53;6.40;;;4.50;;
2680;SDS011;1350;42.134;24.708;2022-07-01T10:52:21;15.73;;;5.40;;
2680;SDS011;1350;42.134;24.708;2022-07-01T10:54:49;9.97;;;5.00;;
2680;SDS011;1350;42.134;24.708;2022-07-01T10:57:22;11.53;;;5.40;;
2680;SDS011;1350;42.134;24.708;2022-07-01T10:59:53;20.03;;;6.80;;
2680;SDS011;1350;42.134;24.708;2022-07-01T11:02:22;13.00;;;6.60;;
2680;SDS011;1350;42.134;24.708;2022-07-01T11:04:51;21.17;;;5.93;;
2680;SDS011;1350;42.134;24.708;2022-07-01T11:07:20;13.00;;;6.87;;
2680;SDS011;1350;42.134;24.708;2022-07-01T11:09:50;10.10;;;6.57;;
2680;SDS011;1350;42.134;24.708;2022-07-01T11:12:17;27.50;;;8.47;;
2680;SDS011;1350;42.134;24.708;2022-07-01T11:14:44;12.07;;;6.07;;
2680;SDS011;1350;42.134;24.708;2022-07-01T11:17:11;16.03;;;6.47;;
2680;SDS011;1350;42.134;24.708;2022-07-01T11:19:38;9.27;;;5.60;;
2680;SDS011;1350;42.134;24.708;2022-07-01T11:22:06;19.43;;;6.80;;
2680;SDS011;1350;42.134;24.708;2022-07-01T11:24:32;9.13;;;5.57;;
2680;SDS011;1350;42.134;24.708;2022-07-01T11:27:00;7.30;;;5.67;;
2680;SDS011;1350;42.134;24.708;2022-07-01T11:29:31;9.40;;;5.23;;
2680;SDS011;1350;42.134;24.708;2022-07-01T11:31:58;8.60;;;6.20;;
2680;SDS011;1350;42.134;24.708;2022-07-01T11:34:28;16.00;;;6.70;;
2680;SDS011;1350;42.134;24.708;2022-07-01T11:36:55;27.80;;;8.07;;
2680;SDS011;1350;42.134;24.708;2022-07-01T11:39:41;7.70;;;5.77;;
2680;SDS011;1350;42.134;24.708;2022-07-01T11:42:09;9.83;;;5.23;;
2680;SDS011;1350;42.134;24.708;2022-07-01T11:44:37;9.53;;;6.03;;
2680;SDS011;1350;42.134;24.708;2022-07-01T11:47:06;8.17;;;5.27;;
2680;SDS011;1350;42.134;24.708;2022-07-01T11:49:42;16.70;;;7.00;;
2680;SDS011;1350;42.134;24.708;2022-07-01T11:52:11;9.30;;;6.40;;
2680;SDS011;1350;42.134;24.708;2022-07-01T11:54:38;12.23;;;5.63;;
2680;SDS011;1350;42.134;24.708;2022-07-01T11:57:11;12.00;;;5.70;;
2680;SDS011;1350;42.134;24.708;2022-07-01T11:59:39;7.37;;;4.43;;
2680;SDS011;1350;42.134;24.708;2022-07-01T12:02:06;7.83;;;5.23;;
2680;SDS011;1350;42.134;24.708;2022-07-01T12:04:36;9.67;;;6.20;;
2680;SDS011;1350;42.134;24.708;2022-07-01T12:07:03;8.30;;;5.97;;
2680;SDS011;1350;42.134;24.708;2022-07-01T12:09:31;9.67;;;5.10;;
2680;SDS011;1350;42.134;24.708;2022-07-01T12:11:58;10.50;;;5.27;;
2680;SDS011;1350;42.134;24.708;2022-07-01T12:14:27;12.40;;;6.40;;
2680;SDS011;1350;42.134;24.708;2022-07-01T12:16:57;12.20;;;6.00;;
2680;SDS011;1350;42.134;24.708;2022-07-01T12:19:29;13.93;;;6.60;;
2680;SDS011;1350;42.134;24.708;2022-07-01T12:22:05;9.40;;;6.00;;
2680;SDS011;1350;42.134;24.708;2022-07-01T12:24:34;8.07;;;5.27;;
2680;SDS011;1350;42.134;24.708;2022-07-01T12:27:02;9.13;;;5.10;;
2680;SDS011;1350;42.134;24.708;2022-07-01T12:32:17;10.00;;;5.10;;
2680;SDS011;1350;42.134;24.708;2022-07-01T12:34:48;14.80;;;6.50;;
2680;SDS011;1350;42.134;24.708;2022-07-01T12:37:17;6.83;;;5.10;;
2680;SDS011;1350;42.134;24.708;2022-07-01T12:39:45;6.90;;;5.20;;
2680;SDS011;1350;42.134;24.708;2022-07-01T12:42:25;10.30;;;5.20;;
2680;SDS011;1350;42.134;24.708;2022-07-01T12:44:55;8.40;;;5.70;;
2680;SDS011;1350;42.134;24.708;2022-07-01T12:47:27;7.40;;;5.00;;
2680;SDS011;1350;42.134;24.708;2022-07-01T12:50:14;11.57;;;6.50;;
2680;SDS011;1350;42.134;24.708;2022-07-01T12:52:55;17.30;;;5.40;;
2680;SDS011;1350;42.134;24.708;2022-07-01T12:55:24;14.60;;;6.13;;
2680;SDS011;1350;42.134;24.708;2022-07-01T12:57:52;8.80;;;5.13;;
2680;SDS011;1350;42.134;24.708;2022-07-01T13:00:22;12.10;;;5.70;;
2680;SDS011;1350;42.134;24.708;2022-07-01T13:02:51;12.50;;;5.70;;
2680;SDS011;1350;42.134;24.708;2022-07-01T13:05:19;38.03;;;10.80;;
2680;SDS011;1350;42.134;24.708;2022-07-01T13:07:46;11.90;;;5.80;;
2680;SDS011;1350;42.134;24.708;2022-07-01T13:10:13;18.87;;;6.23;;
2680;SDS011;1350;42.134;24.708;2022-07-01T13:12:41;10.83;;;6.33;;
2680;SDS011;1350;42.134;24.708;2022-07-01T13:15:09;12.60;;;5.60;;
2680;SDS011;1350;42.134;24.708;2022-07-01T13:17:37;7.33;;;5.63;;
2680;SDS011;1350;42.134;24.708;2022-07-01T13:20:05;12.60;;;6.23;;
2680;SDS011;1350;42.134;24.708;2022-07-01T13:22:33;12.70;;;5.60;;
2680;SDS011;1350;42.134;24.708;2022-07-01T13:25:00;7.77;;;4.93;;
2680;SDS011;1350;42.134;24.708;2022-07-01T13:27:26;13.73;;;5.70;;
2680;SDS011;1350;42.134;24.708;2022-07-01T13:29:53;7.50;;;5.13;;
2680;SDS011;1350;42.134;24.708;2022-07-01T13:32:21;17.10;;;6.50;;
2680;SDS011;1350;42.134;24.708;2022-07-01T13:34:49;8.30;;;6.03;;
2680;SDS011;1350;42.134;24.708;2022-07-01T13:37:16;12.93;;;6.77;;
2680;SDS011;1350;42.134;24.708;2022-07-01T13:39:43;8.60;;;5.50;;
2680;SDS011;1350;42.134;24.708;2022-07-01T13:42:10;13.50;;;5.30;;
2680;SDS011;1350;42.134;24.708;2022-07-01T13:44:37;22.83;;;6.47;;
2680;SDS011;1350;42.134;24.708;2022-07-01T13:47:04;8.80;;;4.93;;
2680;SDS011;1350;42.134;24.708;2022-07-01T13:49:34;16.50;;;6.70;;
2680;SDS011;1350;42.134;24.708;2022-07-01T13:52:02;10.10;;;5.90;;
2680;SDS011;1350;42.134;24.708;2022-07-01T13:54:30;9.43;;;5.00;;
2680;SDS011;1350;42.134;24.708;2022-07-01T13:56:56;6.83;;;5.67;;
2680;SDS011;1350;42.134;24.708;2022-07-01T13:59:23;8.70;;;5.20;;
2680;SDS011;1350;42.134;24.708;2022-07-01T14:01:50;9.30;;;6.17;;
2680;SDS011;1350;42.134;24.708;2022-07-01T14:04:17;8.50;;;5.70;;
2680;SDS011;1350;42.134;24.708;2022-07-01T14:06:44;19.57;;;7.30;;
2680;SDS011;1350;42.134;24.708;2022-07-01T14:09:12;8.23;;;6.13;;
2680;SDS011;1350;42.134;24.708;2022-07-01T14:11:38;7.93;;;5.57;;
2680;SDS011;1350;42.134;24.708;2022-07-01T14:14:05;12.53;;;5.87;;
2680;SDS011;1350;42.134;24.708;2022-07-01T14:16:32;9.37;;;5.93;;
2680;SDS011;1350;42.134;24.708;2022-07-01T14:18:59;10.57;;;5.43;;
2680;SDS011;1350;42.134;24.708;2022-07-01T14:21:27;7.67;;;5.80;;
2680;SDS011;1350;42.134;24.708;2022-07-01T14:23:54;7.53;;;5.30;;
2680;SDS011;1350;42.134;24.708;2022-07-01T14:26:22;9.63;;;5.47;;
2680;SDS011;1350;42.134;24.708;2022-07-01T14:28:49;8.80;;;5.07;;
2680;SDS011;1350;42.134;24.708;2022-07-01T14:31:16;8.03;;;4.80;;
2680;SDS011;1350;42.134;24.708;2022-07-01T14:33:43;10.90;;;6.37;;
2680;SDS011;1350;42.134;24.708;2022-07-01T14:36:10;16.00;;;5.77;;
2680;SDS011;1350;42.134;24.708;2022-07-01T14:38:36;14.80;;;8.33;;
2680;SDS011;1350;42.134;24.708;2022-07-01T14:41:03;8.03;;;6.40;;
2680;SDS011;1350;42.134;24.708;2022-07-01T14:43:32;9.70;;;6.30;;
2680;SDS011;1350;42.134;24.708;2022-07-01T14:46:00;8.17;;;5.90;;
2680;SDS011;1350;42.134;24.708;2022-07-01T14:48:29;11.13;;;6.27;;
2680;SDS011;1350;42.134;24.708;2022-07-01T14:50:56;8.50;;;5.10;;
2680;SDS011;1350;42.134;24.708;2022-07-01T14:53:22;9.73;;;5.53;;
2680;SDS011;1350;42.134;24.708;2022-07-01T14:55:49;9.00;;;5.93;;
2680;SDS011;1350;42.134;24.708;2022-07-01T14:58:16;7.90;;;5.40;;
2680;SDS011;1350;42.134;24.708;2022-07-01T15:00:44;7.93;;;6.33;;
2680;SDS011;1350;42.134;24.708;2022-07-01T15:03:11;7.67;;;5.27;;